Time;durP1;ratioP1;P1;durP2;ratioP2;P2;SDS_P1;SDS_P2;PMS_P1;PMS_P2;Temp;Humidity;BMP_temperature;BMP_pressure;BME280_temperature;BME280_humidity;BME280_pressure;Samples;Min_cycle;Max_cycle;Signal;HPM_P1;HPM_P2
2022/10/13 00:02:32;;;;;;;25.63;12.83;;;11.60;99.90;;;;;;5074575;28;20413;-79
2022/10/13 00:05:20;;;;;;;16.43;11.03;;;11.70;99.90;;;;;;5066492;28;20460;-76
2022/10/13 00:08:06;;;;;;;16.00;11.70;;;11.70;99.90;;;;;;5054797;28;20818;-77
2022/10/13 00:10:52;;;;;;;19.60;11.63;;;11.60;99.90;;;;;;5054075;28;20435;-78
2022/10/13 00:13:38;;;;;;;18.80;11.13;;;11.50;99.90;;;;;;5054367;28;20414;-76
2022/10/13 00:16:24;;;;;;;14.67;11.03;;;11.50;99.90;;;;;;5047674;28;20576;-79
2022/10/13 00:19:09;;;;;;;22.03;12.53;;;11.60;99.90;;;;;;5052526;28;20446;-79
2022/10/13 00:21:57;;;;;;;24.50;12.20;;;11.70;99.90;;;;;;5052340;28;20502;-76
2022/10/13 00:24:42;;;;;;;15.20;11.80;;;11.70;99.90;;;;;;5050582;28;20862;-77
2022/10/13 00:27:28;;;;;;;20.03;11.27;;;11.70;99.90;;;;;;5051094;28;20448;-78
2022/10/13 00:30:14;;;;;;;17.30;11.17;;;11.70;99.90;;;;;;5053814;28;20493;-78
2022/10/13 00:32:59;;;;;;;16.50;11.30;;;11.70;99.90;;;;;;5054889;28;20390;-78
2022/10/13 00:35:47;;;;;;;18.20;11.40;;;11.60;99.90;;;;;;5044285;28;20616;-79
2022/10/13 00:38:34;;;;;;;15.23;11.20;;;11.70;99.90;;;;;;5064656;28;20786;-78
2022/10/13 00:41:21;;;;;;;20.40;11.87;;;11.70;99.90;;;;;;5057598;28;20414;-78
2022/10/13 00:44:27;;;;;;;18.33;11.43;;;11.60;99.90;;;;;;5048830;28;20413;-78
2022/10/13 00:47:13;;;;;;;17.60;12.30;;;11.70;99.90;;;;;;5062154;28;20478;-80
2022/10/13 00:49:59;;;;;;;23.27;13.10;;;11.70;99.90;;;;;;5051321;28;20418;-79
2022/10/13 00:52:46;;;;;;;18.43;13.97;;;11.60;99.90;;;;;;5053947;28;20447;-80
2022/10/13 00:55:37;;;;;;;23.97;14.30;;;11.60;99.90;;;;;;5047354;28;20991;-78
2022/10/13 00:58:25;;;;;;;26.77;14.23;;;11.70;99.90;;;;;;5051163;28;20422;-79
2022/10/13 01:01:11;;;;;;;36.97;14.53;;;11.70;99.90;;;;;;5053179;28;20471;-79
2022/10/13 01:03:56;;;;;;;37.63;17.33;;;11.50;99.90;;;;;;5048244;28;20875;-78
2022/10/13 01:06:42;;;;;;;24.97;16.07;;;11.50;99.90;;;;;;5049641;28;20463;-77
2022/10/13 01:09:34;;;;;;;31.60;15.77;;;11.40;99.90;;;;;;5050160;28;20454;-78
2022/10/13 01:12:35;;;;;;;24.43;17.33;;;11.50;99.90;;;;;;5050051;28;20446;-77
2022/10/13 01:15:27;;;;;;;27.57;16.23;;;11.60;99.90;;;;;;5045001;28;20454;-78
2022/10/13 01:18:20;;;;;;;28.43;16.10;;;11.60;99.90;;;;;;5051717;28;20430;-79
2022/10/13 01:21:16;;;;;;;27.23;17.73;;;11.70;99.90;;;;;;5053942;28;20471;-79
2022/10/13 01:24:32;;;;;;;27.70;17.37;;;11.60;99.90;;;;;;5047362;28;20426;-77
2022/10/13 01:27:43;;;;;;;28.30;16.43;;;11.70;99.90;;;;;;5041112;28;20421;-78
2022/10/13 01:30:35;;;;;;;19.63;14.13;;;11.80;99.90;;;;;;5047717;28;20395;-78
2022/10/13 01:33:30;;;;;;;20.80;15.20;;;11.70;99.90;;;;;;5051235;28;20449;-79
2022/10/13 01:36:23;;;;;;;22.17;15.23;;;11.80;99.90;;;;;;5054335;28;20799;-78
2022/10/13 01:39:18;;;;;;;15.63;13.00;;;11.70;99.90;;;;;;5054775;28;20402;-77
2022/10/13 01:42:12;;;;;;;19.90;12.80;;;11.70;99.90;;;;;;5052231;28;20457;-78
2022/10/13 01:45:01;;;;;;;18.07;13.50;;;11.70;99.90;;;;;;5042798;28;20519;-78
2022/10/13 01:47:50;;;;;;;21.70;14.00;;;11.90;99.90;;;;;;5055118;28;20502;-78
2022/10/13 01:50:38;;;;;;;22.03;16.07;;;12.00;99.90;;;;;;5053355;28;20421;-78
2022/10/13 01:53:24;;;;;;;29.73;17.53;;;12.00;99.90;;;;;;5048792;28;20594;-78
2022/10/13 01:56:09;;;;;;;48.93;18.57;;;12.00;99.90;;;;;;5052863;28;20471;-79
2022/10/13 01:58:57;;;;;;;32.80;19.80;;;12.00;99.90;;;;;;5048649;28;20411;-80
2022/10/13 02:01:54;;;;;;;39.13;20.70;;;12.00;99.90;;;;;;5049834;28;20947;-77
2022/10/13 02:04:54;;;;;;;29.27;19.10;;;12.00;99.90;;;;;;5049379;28;20417;-77
2022/10/13 02:07:45;;;;;;;39.20;18.83;;;11.90;99.90;;;;;;5051139;28;20426;-79
2022/10/13 02:10:36;;;;;;;25.90;15.60;;;12.00;99.90;;;;;;5050657;28;20418;-80
2022/10/13 02:13:24;;;;;;;20.03;14.53;;;12.00;99.90;;;;;;5048607;28;20505;-77
2022/10/13 02:16:11;;;;;;;19.37;14.50;;;12.00;99.90;;;;;;5049676;28;20611;-79
2022/10/13 02:18:58;;;;;;;18.17;13.87;;;12.20;99.90;;;;;;5050994;28;20496;-77
2022/10/13 02:21:46;;;;;;;19.20;14.20;;;12.20;99.90;;;;;;5051495;28;20422;-77
2022/10/13 02:24:33;;;;;;;18.57;13.73;;;12.20;99.90;;;;;;5046755;28;20459;-78
2022/10/13 02:27:18;;;;;;;23.23;14.00;;;12.30;99.90;;;;;;5050208;28;20508;-80
2022/10/13 02:30:05;;;;;;;25.33;13.63;;;12.30;99.90;;;;;;5053209;28;20419;-80
2022/10/13 02:32:51;;;;;;;17.60;13.80;;;12.20;99.90;;;;;;5052863;28;20521;-79
2022/10/13 02:35:36;;;;;;;21.40;14.20;;;12.20;99.90;;;;;;5051427;28;20564;-79
2022/10/13 02:38:23;;;;;;;19.87;14.37;;;12.10;99.90;;;;;;5048212;28;20448;-80
2022/10/13 02:41:09;;;;;;;17.00;13.50;;;12.20;99.90;;;;;;5051778;28;20542;-76
2022/10/13 02:43:55;;;;;;;29.03;15.50;;;12.20;99.90;;;;;;5051016;28;20472;-80
2022/10/13 02:46:41;;;;;;;25.13;16.27;;;12.20;99.90;;;;;;5053338;28;20425;-79
2022/10/13 02:49:26;;;;;;;52.40;14.97;;;12.00;99.90;;;;;;5054209;28;20413;-80
2022/10/13 02:52:12;;;;;;;28.57;16.20;;;11.80;99.90;;;;;;5052758;28;20475;-78
2022/10/13 02:54:59;;;;;;;21.23;15.20;;;11.70;99.90;;;;;;5052403;28;20421;-80
2022/10/13 02:57:45;;;;;;;22.37;15.70;;;11.70;99.90;;;;;;5050083;28;20956;-80
2022/10/13 03:00:31;;;;;;;19.10;15.00;;;11.70;99.90;;;;;;5049503;28;20449;-78
2022/10/13 03:03:16;;;;;;;23.33;15.10;;;11.70;99.90;;;;;;5043209;28;20472;-78
2022/10/13 03:06:02;;;;;;;24.30;14.50;;;11.70;99.90;;;;;;5049002;28;20430;-78
2022/10/13 03:08:47;;;;;;;58.37;15.13;;;11.70;99.90;;;;;;5048517;28;20502;-79
2022/10/13 03:11:35;;;;;;;22.20;14.03;;;11.70;99.90;;;;;;5050763;28;20422;-78
2022/10/13 03:14:21;;;;;;;17.40;13.17;;;11.50;99.90;;;;;;5050062;28;20436;-76
2022/10/13 03:17:06;;;;;;;16.73;13.33;;;11.40;99.90;;;;;;5053974;28;20442;-79
2022/10/13 03:19:52;;;;;;;14.80;12.40;;;11.40;99.90;;;;;;5056709;28;20435;-79
2022/10/13 03:22:37;;;;;;;17.00;13.27;;;11.50;99.90;;;;;;5048634;28;20956;-78
2022/10/13 03:25:23;;;;;;;18.20;12.80;;;11.60;99.90;;;;;;5053034;28;20471;-80
2022/10/13 03:28:11;;;;;;;15.77;13.90;;;11.60;99.90;;;;;;5051672;28;20589;-78
2022/10/13 03:31:01;;;;;;;16.67;12.50;;;11.50;99.90;;;;;;5052966;28;20463;-78
2022/10/13 03:33:47;;;;;;;13.10;11.17;;;11.40;99.90;;;;;;5049917;28;20772;-79
2022/10/13 03:36:32;;;;;;;13.10;11.50;;;11.50;99.90;;;;;;5054427;28;20553;-78
2022/10/13 03:39:18;;;;;;;15.00;11.13;;;11.40;99.90;;;;;;5053432;28;20802;-80
2022/10/13 03:42:04;;;;;;;17.87;11.50;;;11.30;99.90;;;;;;5049369;28;20526;-78
2022/10/13 03:44:51;;;;;;;14.07;10.73;;;11.30;99.90;;;;;;5054622;28;20472;-76
2022/10/13 03:47:37;;;;;;;15.57;11.17;;;11.30;99.90;;;;;;5054370;28;20452;-78
2022/10/13 03:50:22;;;;;;;16.27;12.03;;;11.30;99.90;;;;;;5054987;28;20476;-79
2022/10/13 03:53:10;;;;;;;17.80;10.80;;;11.20;99.90;;;;;;5047168;28;20534;-78
2022/10/13 03:55:56;;;;;;;15.60;9.90;;;11.20;99.90;;;;;;5054012;28;20465;-80
2022/10/13 03:58:42;;;;;;;10.93;9.87;;;11.20;99.90;;;;;;5058180;28;20501;-79
2022/10/13 04:01:30;;;;;;;13.53;11.10;;;11.20;99.90;;;;;;5050924;28;20475;-78
2022/10/13 04:04:16;;;;;;;12.83;11.47;;;11.10;99.90;;;;;;5056951;28;20418;-77
2022/10/13 04:07:01;;;;;;;17.50;12.03;;;11.20;99.90;;;;;;5054295;28;20637;-79
2022/10/13 04:09:47;;;;;;;17.73;12.70;;;11.20;99.90;;;;;;5053480;28;20445;-79
2022/10/13 04:12:33;;;;;;;15.97;11.60;;;11.30;99.90;;;;;;5050516;28;20572;-80
2022/10/13 04:15:19;;;;;;;18.07;11.70;;;11.40;99.90;;;;;;5053782;28;20822;-79
2022/10/13 04:18:07;;;;;;;15.20;11.30;;;11.30;99.90;;;;;;5055748;28;20459;-78
2022/10/13 04:20:53;;;;;;;17.40;12.47;;;11.30;99.90;;;;;;5053290;28;20534;-75
2022/10/13 04:23:39;;;;;;;21.80;12.80;;;11.40;99.90;;;;;;5053205;28;20418;-78
2022/10/13 04:26:27;;;;;;;28.97;13.67;;;11.40;99.90;;;;;;5053067;28;20468;-78
2022/10/13 04:29:13;;;;;;;24.43;11.70;;;11.50;99.90;;;;;;5051936;28;20980;-80
2022/10/13 04:31:59;;;;;;;30.83;14.40;;;11.50;99.90;;;;;;5053108;28;20439;-77
2022/10/13 04:34:46;;;;;;;18.13;13.73;;;11.60;99.90;;;;;;5055268;28;20509;-78
2022/10/13 04:37:32;;;;;;;18.20;14.27;;;11.60;99.90;;;;;;5055714;28;20837;-76
2022/10/13 04:40:18;;;;;;;22.17;15.47;;;11.60;99.90;;;;;;5051789;28;20411;-80
2022/10/13 04:43:03;;;;;;;18.83;13.47;;;11.70;99.90;;;;;;5049572;28;20414;-77
2022/10/13 04:45:49;;;;;;;20.90;14.43;;;11.70;99.90;;;;;;5058963;28;20492;-78
2022/10/13 04:48:35;;;;;;;28.03;14.30;;;11.70;99.90;;;;;;5052335;28;20446;-79
2022/10/13 04:51:24;;;;;;;31.90;15.33;;;11.70;99.90;;;;;;5047388;28;20410;-79
2022/10/13 04:54:09;;;;;;;17.43;14.17;;;11.70;99.90;;;;;;5052636;28;20421;-80
2022/10/13 04:56:55;;;;;;;18.50;13.83;;;11.70;99.90;;;;;;5054081;28;20510;-78
2022/10/13 04:59:41;;;;;;;19.30;15.23;;;11.70;99.90;;;;;;5055587;28;20427;-79
2022/10/13 05:02:27;;;;;;;20.07;15.20;;;11.70;99.90;;;;;;5048049;28;20526;-79
2022/10/13 05:05:13;;;;;;;19.07;15.07;;;11.70;99.90;;;;;;5051107;28;20431;-77
2022/10/13 05:07:59;;;;;;;17.63;13.43;;;11.80;99.90;;;;;;5048661;28;20423;-76
2022/10/13 05:10:54;;;;;;;16.97;13.90;;;11.80;99.90;;;;;;5043773;28;20449;-78
2022/10/13 05:13:39;;;;;;;29.23;13.17;;;11.90;99.90;;;;;;5049996;28;20502;-78
2022/10/13 05:16:25;;;;;;;19.20;14.30;;;11.90;99.90;;;;;;5048029;28;20887;-77
2022/10/13 05:19:11;;;;;;;19.57;13.73;;;11.90;99.90;;;;;;5053449;28;21025;-79
2022/10/13 05:21:57;;;;;;;18.53;13.40;;;11.90;99.90;;;;;;5048028;28;20526;-78
2022/10/13 05:24:44;;;;;;;17.10;14.17;;;11.90;99.90;;;;;;5054176;28;20400;-78
2022/10/13 05:27:30;;;;;;;18.70;12.80;;;11.90;99.90;;;;;;5049674;28;20394;-78
2022/10/13 05:30:15;;;;;;;17.03;13.50;;;11.90;99.90;;;;;;5051240;28;20477;-76
2022/10/13 05:33:01;;;;;;;14.13;12.07;;;11.80;99.90;;;;;;5055109;28;20588;-80
2022/10/13 05:35:46;;;;;;;15.70;11.90;;;11.70;99.90;;;;;;5053035;28;20440;-78
2022/10/13 05:38:32;;;;;;;18.33;12.60;;;11.80;99.90;;;;;;5054556;28;20821;-79
2022/10/13 05:41:20;;;;;;;14.57;11.50;;;11.80;99.90;;;;;;5050780;28;20487;-78
2022/10/13 05:44:08;;;;;;;18.30;13.00;;;11.90;99.90;;;;;;5047330;28;20493;-78
2022/10/13 05:46:54;;;;;;;15.90;13.23;;;11.60;99.90;;;;;;5052528;28;20439;-79
2022/10/13 05:49:39;;;;;;;23.33;13.47;;;11.60;99.90;;;;;;5051055;28;20537;-78
2022/10/13 05:52:26;;;;;;;14.10;12.60;;;11.60;99.90;;;;;;5054732;28;20910;-77
2022/10/13 05:55:14;;;;;;;17.10;12.83;;;11.40;99.90;;;;;;5056798;28;20842;-78
2022/10/13 05:58:02;;;;;;;18.90;12.23;;;11.40;99.90;;;;;;5045686;28;20941;-77
2022/10/13 06:00:48;;;;;;;15.30;12.53;;;11.40;99.90;;;;;;5047014;28;20457;-77
2022/10/13 06:03:35;;;;;;;13.13;11.67;;;11.50;99.90;;;;;;5047056;28;20451;-77
2022/10/13 06:06:21;;;;;;;15.87;12.30;;;11.50;99.90;;;;;;5045515;28;20459;-77
2022/10/13 06:09:07;;;;;;;14.80;12.50;;;11.50;99.90;;;;;;5047556;28;20511;-77
2022/10/13 06:11:53;;;;;;;13.23;11.80;;;11.60;99.90;;;;;;5049560;28;20565;-77
2022/10/13 06:14:40;;;;;;;14.33;12.30;;;11.50;99.90;;;;;;5048834;28;20933;-77
2022/10/13 06:17:25;;;;;;;21.27;11.80;;;11.60;99.90;;;;;;5045615;28;21011;-77
2022/10/13 06:20:11;;;;;;;13.53;11.33;;;11.60;99.90;;;;;;5045127;28;20443;-77
2022/10/13 06:22:57;;;;;;;14.63;11.13;;;11.60;99.90;;;;;;5048000;28;20952;-77
2022/10/13 06:25:47;;;;;;;16.57;12.23;;;11.50;99.90;;;;;;5047943;28;20610;-77
2022/10/13 06:28:33;;;;;;;13.37;10.50;;;11.50;99.90;;;;;;5049662;28;20394;-77
2022/10/13 06:31:20;;;;;;;14.10;10.67;;;11.50;99.90;;;;;;5048507;28;20790;-77
2022/10/13 06:34:06;;;;;;;13.73;11.00;;;11.50;99.90;;;;;;5039790;28;20432;-77
2022/10/13 06:36:52;;;;;;;15.10;11.00;;;11.50;99.90;;;;;;5048512;28;20418;-75
2022/10/13 06:39:37;;;;;;;17.53;11.33;;;11.50;99.90;;;;;;5044525;28;20515;-77
2022/10/13 06:42:23;;;;;;;15.13;10.60;;;11.50;99.90;;;;;;5046424;28;20442;-76
2022/10/13 06:45:10;;;;;;;12.23;10.30;;;11.50;99.90;;;;;;5044982;28;20449;-77
2022/10/13 06:47:57;;;;;;;13.60;10.60;;;11.60;99.90;;;;;;5054658;28;20466;-77
2022/10/13 06:50:42;;;;;;;15.47;11.37;;;11.60;99.90;;;;;;5051161;28;20943;-77
2022/10/13 06:53:28;;;;;;;14.40;10.83;;;11.60;99.90;;;;;;5048627;28;20956;-77
2022/10/13 06:56:14;;;;;;;13.80;11.60;;;11.60;99.90;;;;;;5047780;28;20430;-77
2022/10/13 06:58:59;;;;;;;23.07;15.83;;;11.60;99.90;;;;;;5047532;28;20447;-78
2022/10/13 07:01:45;;;;;;;19.10;14.37;;;11.60;99.90;;;;;;5053414;28;20462;-77
2022/10/13 07:04:32;;;;;;;20.60;15.40;;;11.50;99.90;;;;;;5047093;28;20401;-75
2022/10/13 07:07:18;;;;;;;20.50;15.93;;;11.50;99.90;;;;;;5051261;28;20447;-77
2022/10/13 07:10:04;;;;;;;26.73;15.70;;;11.60;99.90;;;;;;5051303;28;20500;-76
2022/10/13 07:12:49;;;;;;;17.90;13.37;;;11.80;99.90;;;;;;5051545;28;20406;-77
2022/10/13 07:15:38;;;;;;;26.47;19.63;;;11.90;99.90;;;;;;5051161;28;20449;-77
2022/10/13 07:18:23;;;;;;;28.97;20.37;;;11.90;99.90;;;;;;5050061;28;20867;-78
2022/10/13 07:21:11;;;;;;;27.20;19.50;;;12.00;99.90;;;;;;5053971;28;20839;-78
2022/10/13 07:23:56;;;;;;;23.73;19.50;;;12.00;99.90;;;;;;5050057;28;20812;-77
2022/10/13 07:26:42;;;;;;;27.57;20.00;;;12.00;99.90;;;;;;5052376;28;20434;-77
2022/10/13 07:29:27;;;;;;;20.20;16.50;;;12.10;99.90;;;;;;5048834;28;20774;-77
2022/10/13 07:32:13;;;;;;;18.20;15.43;;;12.10;99.90;;;;;;5052066;28;20485;-77
2022/10/13 07:34:59;;;;;;;19.93;14.97;;;12.20;99.90;;;;;;5051657;28;20443;-77
2022/10/13 07:37:46;;;;;;;20.07;15.57;;;12.20;99.90;;;;;;5050817;28;20463;-77
2022/10/13 07:40:31;;;;;;;24.90;15.40;;;12.10;99.90;;;;;;5052535;28;20405;-77
2022/10/13 07:43:17;;;;;;;18.90;14.03;;;12.20;99.90;;;;;;5045961;28;20459;-77
2022/10/13 07:46:05;;;;;;;25.10;15.27;;;12.30;99.90;;;;;;5050410;28;20560;-78
2022/10/13 07:48:52;;;;;;;19.60;15.07;;;12.40;99.90;;;;;;5046910;28;20423;-77
2022/10/13 07:51:37;;;;;;;25.47;15.70;;;12.50;99.90;;;;;;5050647;28;20410;-77
2022/10/13 07:54:25;;;;;;;21.93;16.70;;;12.50;99.90;;;;;;5049003;28;20932;-77
2022/10/13 07:57:10;;;;;;;20.53;15.33;;;12.50;99.90;;;;;;5047769;28;20531;-77
2022/10/13 07:59:56;;;;;;;21.20;15.87;;;12.60;99.90;;;;;;5045831;28;20440;-77
2022/10/13 08:02:42;;;;;;;25.20;16.13;;;12.60;99.90;;;;;;5053381;28;20540;-77
2022/10/13 08:05:27;;;;;;;27.43;17.23;;;12.60;99.90;;;;;;5047997;28;20469;-77
2022/10/13 08:08:13;;;;;;;24.47;20.67;;;12.70;99.90;;;;;;5048519;28;20426;-77
2022/10/13 08:11:03;;;;;;;25.50;18.90;;;12.70;99.90;;;;;;5049977;28;20463;-77
2022/10/13 08:13:49;;;;;;;33.10;20.20;;;12.80;99.90;;;;;;5048706;28;20434;-78
2022/10/13 08:16:34;;;;;;;23.83;18.20;;;12.90;99.90;;;;;;5051739;28;20467;-77
2022/10/13 08:19:20;;;;;;;30.50;18.43;;;13.00;99.90;;;;;;5047026;28;20777;-77
2022/10/13 08:22:06;;;;;;;26.83;18.80;;;13.10;99.90;;;;;;5051763;28;20476;-77
2022/10/13 08:24:52;;;;;;;25.67;15.30;;;13.20;99.90;;;;;;5050313;28;20495;-77
2022/10/13 08:27:39;;;;;;;23.87;15.80;;;13.30;99.90;;;;;;5048818;28;20419;-77
2022/10/13 08:30:24;;;;;;;19.63;15.17;;;13.40;99.90;;;;;;5050181;28;20427;-78
2022/10/13 08:33:10;;;;;;;25.40;15.50;;;13.60;99.90;;;;;;5048395;28;20798;-77
2022/10/13 08:35:56;;;;;;;18.83;15.03;;;13.60;99.90;;;;;;5050315;28;20529;-77
2022/10/13 08:38:42;;;;;;;24.50;15.43;;;13.50;99.90;;;;;;5049026;28;20470;-77
2022/10/13 08:41:32;;;;;;;20.20;15.07;;;13.50;99.90;;;;;;5048563;28;20427;-77
2022/10/13 08:44:25;;;;;;;22.80;16.67;;;13.60;99.90;;;;;;5048612;28;20402;-77
2022/10/13 08:47:17;;;;;;;22.37;14.77;;;13.70;99.90;;;;;;5048383;28;20438;-77
2022/10/13 08:50:11;;;;;;;22.30;15.13;;;13.70;99.90;;;;;;5047448;28;20481;-77
2022/10/13 08:53:00;;;;;;;18.80;14.47;;;13.80;99.90;;;;;;5052207;28;20394;-77
2022/10/13 08:55:49;;;;;;;20.13;13.53;;;13.80;99.90;;;;;;5052981;28;20426;-77
2022/10/13 08:58:37;;;;;;;27.40;15.07;;;13.90;99.90;;;;;;5044767;28;20955;-77
2022/10/13 09:01:28;;;;;;;20.77;13.93;;;13.90;99.90;;;;;;5045210;28;20436;-77
2022/10/13 09:04:25;;;;;;;20.10;14.37;;;14.00;99.90;;;;;;5050411;28;20582;-76
2022/10/13 09:07:15;;;;;;;20.93;14.20;;;14.00;99.90;;;;;;5045610;28;20614;-78
2022/10/13 09:10:01;;;;;;;27.77;14.67;;;14.00;99.90;;;;;;5048983;28;20533;-77
2022/10/13 09:12:46;;;;;;;14.77;13.10;;;14.10;99.90;;;;;;5050495;28;20874;-77
2022/10/13 09:15:43;;;;;;;21.27;14.00;;;14.10;99.90;;;;;;5048974;28;20916;-76
2022/10/13 09:18:31;;;;;;;18.67;13.67;;;14.10;99.90;;;;;;5040911;28;20529;-77
2022/10/13 09:21:21;;;;;;;22.73;14.07;;;14.10;99.90;;;;;;5048899;28;20452;-77
2022/10/13 09:24:12;;;;;;;18.60;13.50;;;14.10;99.90;;;;;;5048083;28;20465;-76
2022/10/13 09:27:11;;;;;;;19.03;12.90;;;14.10;99.90;;;;;;5046926;28;20524;-77
2022/10/13 09:29:57;;;;;;;19.43;12.53;;;14.10;99.90;;;;;;5048516;28;20450;-77
2022/10/13 09:32:51;;;;;;;22.60;12.47;;;14.10;99.90;;;;;;5100744;27;20575;-77
2022/10/13 09:35:38;;;;;;;17.10;13.07;;;14.10;99.90;;;;;;5101543;28;20485;-77
2022/10/13 09:38:25;;;;;;;19.73;12.97;;;14.10;99.90;;;;;;5101651;28;20417;-77
2022/10/13 09:41:19;;;;;;;17.23;13.03;;;14.10;99.90;;;;;;5095567;28;20682;-76
2022/10/13 09:44:11;;;;;;;16.30;12.33;;;14.10;99.90;;;;;;5103119;22;20430;-79
2022/10/13 09:47:01;;;;;;;18.80;11.93;;;14.10;99.90;;;;;;5045410;28;20906;-79
2022/10/13 09:50:00;;;;;;;24.57;14.23;;;14.10;99.90;;;;;;5043192;28;20470;-79
2022/10/13 09:52:47;;;;;;;16.00;13.20;;;14.20;99.90;;;;;;5054771;28;20446;-79
2022/10/13 09:55:35;;;;;;;22.03;14.20;;;14.20;99.90;;;;;;5050891;28;20853;-79
2022/10/13 09:58:28;;;;;;;21.83;14.20;;;14.20;99.90;;;;;;5047309;28;20418;-79
2022/10/13 10:01:21;;;;;;;20.77;14.63;;;14.30;99.90;;;;;;5049928;28;20953;-80
2022/10/13 10:04:10;;;;;;;20.80;13.20;;;14.30;99.90;;;;;;5051273;28;20796;-79
2022/10/13 10:06:57;;;;;;;27.97;13.33;;;14.30;99.90;;;;;;5052110;28;20568;-79
2022/10/13 10:09:47;;;;;;;25.27;14.90;;;14.40;99.90;;;;;;5047493;28;20431;-80
2022/10/13 10:12:37;;;;;;;17.53;13.20;;;14.40;99.90;;;;;;5048271;28;20452;-79
2022/10/13 10:15:29;;;;;;;16.63;12.97;;;14.40;99.90;;;;;;5048519;28;20516;-79
2022/10/13 10:18:20;;;;;;;24.30;15.17;;;14.30;99.90;;;;;;5046009;28;20549;-79
2022/10/13 10:21:16;;;;;;;22.90;16.60;;;14.30;99.90;;;;;;5050035;28;20977;-78
2022/10/13 10:24:12;;;;;;;21.73;13.43;;;14.20;99.90;;;;;;5045362;28;20414;-80
2022/10/13 10:27:01;;;;;;;20.80;14.40;;;14.20;99.90;;;;;;5051234;28;20435;-80
2022/10/13 10:29:52;;;;;;;26.70;16.70;;;14.20;99.90;;;;;;5047981;28;20432;-80
2022/10/13 10:32:47;;;;;;;22.23;15.60;;;14.20;99.90;;;;;;5050104;28;20573;-80
2022/10/13 10:35:43;;;;;;;26.60;17.93;;;14.10;99.90;;;;;;5046541;28;20475;-80
2022/10/13 10:38:38;;;;;;;31.83;16.20;;;14.10;99.90;;;;;;5047498;28;20451;-80
2022/10/13 10:41:46;;;;;;;23.60;15.90;;;14.10;99.90;;;;;;5046965;28;20426;-80
2022/10/13 10:44:34;;;;;;;24.30;15.43;;;14.20;99.90;;;;;;5034290;28;20438;-80
2022/10/13 10:47:24;;;;;;;24.90;15.30;;;14.20;99.90;;;;;;5033969;28;20452;-80
2022/10/13 10:50:16;;;;;;;21.70;14.37;;;14.20;99.90;;;;;;5037029;28;20426;-80
2022/10/13 10:53:06;;;;;;;25.57;15.27;;;14.10;99.90;;;;;;5033703;28;21036;-80
2022/10/13 10:55:55;;;;;;;24.40;16.70;;;14.10;99.90;;;;;;5037430;28;20504;-80
2022/10/13 10:58:47;;;;;;;23.30;15.57;;;14.10;99.90;;;;;;5029637;28;20419;-80
2022/10/13 11:01:39;;;;;;;23.20;16.90;;;14.10;99.90;;;;;;5035578;28;20382;-80
2022/10/13 11:04:40;;;;;;;21.33;16.10;;;14.20;99.90;;;;;;5033224;28;20434;-80
2022/10/13 11:07:54;;;;;;;31.13;15.40;;;14.20;99.90;;;;;;5030523;28;20425;-80
2022/10/13 11:10:40;;;;;;;29.90;16.40;;;14.30;99.90;;;;;;5036573;28;20523;-80
2022/10/13 11:13:26;;;;;;;25.40;17.10;;;14.30;99.90;;;;;;5032839;28;20428;-80
2022/10/13 11:16:28;;;;;;;31.23;17.43;;;14.30;99.90;;;;;;5035317;28;20407;-80
2022/10/13 11:19:31;;;;;;;30.70;17.53;;;14.30;99.90;;;;;;5032202;28;20925;-80
2022/10/13 11:22:19;;;;;;;29.67;16.57;;;14.30;99.90;;;;;;5031401;28;20536;-80
2022/10/13 11:25:35;;;;;;;22.53;15.97;;;14.30;99.90;;;;;;5034898;28;20448;-80
2022/10/13 11:28:46;;;;;;;26.17;18.53;;;14.30;99.90;;;;;;5034858;28;20407;-80
2022/10/13 11:31:49;;;;;;;29.83;17.87;;;14.40;99.90;;;;;;5033060;28;20516;-80
2022/10/13 11:34:34;;;;;;;30.10;18.60;;;14.50;99.90;;;;;;5033582;28;20558;-79
2022/10/13 11:37:40;;;;;;;32.10;19.00;;;14.60;99.90;;;;;;5023519;28;20838;-79
2022/10/13 11:40:33;;;;;;;38.63;20.23;;;14.70;99.90;;;;;;5031048;28;20423;-80
2022/10/13 11:43:32;;;;;;;32.90;19.47;;;14.80;99.90;;;;;;5030419;28;20464;-81
2022/10/13 11:46:29;;;;;;;27.10;17.90;;;15.00;99.90;;;;;;5030865;28;20948;-80
2022/10/13 11:50:00;;;;;;;32.17;18.60;;;15.10;99.90;;;;;;5031436;28;20573;-81
2022/10/13 11:53:05;;;;;;;28.30;16.70;;;15.20;99.90;;;;;;5022989;28;20607;-83
2022/10/13 11:55:54;;;;;;;26.80;17.90;;;15.30;99.90;;;;;;5030730;28;20467;-82
2022/10/13 11:58:42;;;;;;;27.90;18.53;;;15.20;99.90;;;;;;5030952;28;20807;-82
2022/10/13 12:01:33;;;;;;;31.50;18.10;;;15.30;99.90;;;;;;5032646;28;20973;-82
2022/10/13 12:04:22;;;;;;;26.90;17.80;;;15.30;99.90;;;;;;5029444;28;20431;-82
2022/10/13 12:07:12;;;;;;;28.77;18.73;;;15.30;99.90;;;;;;5025969;28;20545;-83
2022/10/13 12:09:58;;;;;;;29.70;20.17;;;15.40;99.90;;;;;;5028669;28;20416;-82
2022/10/13 12:12:48;;;;;;;26.50;18.97;;;15.50;99.90;;;;;;5037355;28;20843;-83
2022/10/13 12:15:37;;;;;;;29.83;18.00;;;15.70;99.90;;;;;;5031227;28;20628;-82
2022/10/13 12:18:26;;;;;;;31.50;16.13;;;16.00;99.90;;;;;;5027204;28;20403;-83
2022/10/13 12:21:14;;;;;;;29.83;17.03;;;16.30;99.90;;;;;;5029111;28;20407;-83
2022/10/13 12:24:11;;;;;;;22.10;16.83;;;16.40;99.90;;;;;;5027864;28;20400;-82
2022/10/13 12:26:58;;;;;;;25.93;15.13;;;16.40;99.90;;;;;;5023010;28;20445;-82
2022/10/13 12:29:44;;;;;;;24.30;15.93;;;16.40;99.90;;;;;;5031187;28;20425;-82
2022/10/13 12:32:34;;;;;;;33.53;15.03;;;16.40;99.90;;;;;;5032815;28;20476;-82
2022/10/13 12:35:23;;;;;;;20.53;14.60;;;16.30;99.90;;;;;;5024925;28;20523;-82
2022/10/13 12:38:18;;;;;;;23.73;14.87;;;16.30;99.90;;;;;;5032548;28;20436;-82
2022/10/13 12:41:06;;;;;;;29.80;15.53;;;16.20;99.90;;;;;;5032401;28;20402;-82
2022/10/13 12:43:53;;;;;;;22.50;13.97;;;16.20;99.90;;;;;;5033030;28;20396;-82
2022/10/13 12:46:41;;;;;;;21.73;16.20;;;16.20;99.90;;;;;;5027951;28;20463;-82
2022/10/13 12:49:28;;;;;;;26.23;15.87;;;16.20;99.90;;;;;;5029127;28;20428;-82
2022/10/13 12:52:16;;;;;;;31.13;18.33;;;16.10;99.90;;;;;;5030224;28;20471;-81
2022/10/13 12:55:02;;;;;;;28.27;18.83;;;16.20;99.90;;;;;;5030785;28;20451;-82
2022/10/13 12:57:51;;;;;;;33.47;20.37;;;16.00;99.90;;;;;;5035307;28;20396;-81
2022/10/13 13:00:37;;;;;;;30.27;16.93;;;15.80;99.90;;;;;;5033177;28;20523;-82
2022/10/13 13:03:27;;;;;;;31.00;18.33;;;15.70;99.90;;;;;;5028578;28;20470;-82
2022/10/13 13:06:34;;;;;;;32.30;18.90;;;15.60;99.90;;;;;;5029028;28;20419;-82
2022/10/13 13:09:26;;;;;;;30.50;19.73;;;15.60;99.90;;;;;;5024850;28;20784;-82
2022/10/13 13:12:27;;;;;;;28.37;18.93;;;15.60;99.90;;;;;;5035952;28;20468;-82
2022/10/13 13:15:32;;;;;;;30.40;19.10;;;15.50;99.90;;;;;;5027080;28;20794;-82
2022/10/13 13:18:35;;;;;;;29.00;19.93;;;15.50;99.90;;;;;;5031139;28;20420;-82
2022/10/13 13:21:20;;;;;;;42.40;19.37;;;15.50;99.90;;;;;;5028038;28;20428;-82
2022/10/13 13:24:06;;;;;;;30.00;18.87;;;15.60;99.90;;;;;;5027538;28;20459;-81
2022/10/13 13:26:52;;;;;;;27.73;19.03;;;15.70;99.90;;;;;;5027531;28;20432;-82
2022/10/13 13:29:37;;;;;;;38.13;21.87;;;15.70;99.90;;;;;;5026509;28;21068;-82
2022/10/13 13:32:27;;;;;;;32.53;20.50;;;15.60;99.90;;;;;;5036170;28;20479;-82
2022/10/13 13:35:13;;;;;;;23.40;18.93;;;15.70;99.90;;;;;;5021071;28;20456;-82
2022/10/13 13:37:58;;;;;;;33.57;20.17;;;15.60;99.90;;;;;;5032449;28;20428;-82
2022/10/13 13:40:44;;;;;;;27.20;18.57;;;15.60;99.90;;;;;;5032592;28;20467;-82
2022/10/13 13:43:30;;;;;;;24.37;18.83;;;15.70;99.90;;;;;;5033161;28;20403;-82
2022/10/13 13:46:19;;;;;;;29.07;20.90;;;15.80;99.90;;;;;;5012223;28;20412;-81
2022/10/13 13:49:06;;;;;;;27.03;19.40;;;15.80;99.90;;;;;;5021026;28;20452;-81
2022/10/13 13:51:52;;;;;;;30.43;20.30;;;15.80;99.90;;;;;;5030619;28;20428;-82
2022/10/13 13:54:37;;;;;;;29.67;19.07;;;15.90;99.90;;;;;;5022676;28;20469;-81
2022/10/13 13:57:23;;;;;;;33.33;21.67;;;15.90;99.90;;;;;;5035090;28;20424;-81
2022/10/13 14:00:12;;;;;;;29.53;20.40;;;15.90;99.90;;;;;;5031867;28;20814;-81
2022/10/13 14:02:58;;;;;;;31.70;18.20;;;16.00;99.90;;;;;;5028390;28;20415;-82
2022/10/13 14:05:45;;;;;;;32.97;19.20;;;16.10;99.90;;;;;;5025776;28;20438;-82
2022/10/13 14:08:31;;;;;;;25.43;19.17;;;16.20;99.90;;;;;;5028356;28;20503;-82
2022/10/13 14:11:17;;;;;;;20.77;16.20;;;16.10;99.90;;;;;;5027907;28;21103;-81
2022/10/13 14:14:03;;;;;;;23.50;16.10;;;16.20;99.90;;;;;;5026499;28;20513;-82
2022/10/13 14:16:49;;;;;;;25.97;17.87;;;16.20;99.90;;;;;;5028220;28;20447;-82
2022/10/13 14:19:34;;;;;;;27.90;16.13;;;16.20;99.90;;;;;;5034480;28;20448;-81